createdAt,value
2018-08-13T00:01:38.931Z,100.00
2018-08-13T00:04:07.221Z,100.00
2018-08-13T00:06:35.849Z,100.00
2018-08-13T00:09:06.013Z,100.00
2018-08-13T00:11:34.526Z,100.00
2018-08-13T00:14:02.699Z,100.00
2018-08-13T00:16:30.998Z,100.00
2018-08-13T00:18:59.178Z,100.00
2018-08-13T00:21:27.370Z,100.00
2018-08-13T00:23:55.669Z,100.00
2018-08-13T00:26:23.902Z,100.00
2018-08-13T00:28:52.218Z,100.00
2018-08-13T00:31:20.446Z,100.00
2018-08-13T00:33:48.622Z,100.00
2018-08-13T00:36:17.350Z,100.00
2018-08-13T00:38:45.521Z,100.00
2018-08-13T00:41:13.704Z,100.00
2018-08-13T00:43:41.894Z,100.00
2018-08-13T00:46:10.109Z,100.00
2018-08-13T00:48:38.541Z,100.00
2018-08-13T00:51:06.733Z,100.00
2018-08-13T00:53:34.931Z,100.00
2018-08-13T00:56:03.231Z,100.00
2018-08-13T00:58:31.465Z,100.00
2018-08-13T01:00:59.670Z,100.00
2018-08-13T01:03:28.204Z,100.00
2018-08-13T01:05:56.402Z,100.00
2018-08-13T01:08:24.590Z,100.00
2018-08-13T01:10:52.856Z,100.00
2018-08-13T01:13:21.045Z,100.00
2018-08-13T01:15:49.228Z,100.00
2018-08-13T01:18:17.434Z,100.00
2018-08-13T01:20:45.702Z,100.00
2018-08-13T01:23:13.876Z,100.00
2018-08-13T01:25:42.041Z,100.00
2018-08-13T01:28:10.242Z,100.00
2018-08-13T01:30:38.468Z,100.00
2018-08-13T01:33:06.818Z,100.00
2018-08-13T01:35:35.009Z,100.00
2018-08-13T01:38:03.312Z,100.00
2018-08-13T01:40:31.542Z,100.00
2018-08-13T01:42:59.770Z,100.00
2018-08-13T01:45:27.946Z,100.00
2018-08-13T01:47:56.244Z,100.00
2018-08-13T01:50:24.442Z,100.00
2018-08-13T01:52:52.633Z,100.00
2018-08-13T01:55:20.817Z,100.00
2018-08-13T01:57:49.025Z,100.00
2018-08-13T02:00:17.522Z,100.00
2018-08-13T02:02:45.721Z,100.00
2018-08-13T02:05:13.941Z,100.00
2018-08-13T02:07:42.237Z,100.00
2018-08-13T02:10:11.869Z,100.00
2018-08-13T02:12:40.546Z,100.00
2018-08-13T02:15:08.850Z,100.00
2018-08-13T02:17:37.160Z,100.00
2018-08-13T02:20:07.172Z,100.00
2018-08-13T02:22:35.490Z,100.00
2018-08-13T02:25:04.448Z,100.00
2018-08-13T02:27:32.650Z,100.00
2018-08-13T02:30:00.922Z,100.00
2018-08-13T02:32:29.154Z,100.00
2018-08-13T02:34:57.367Z,100.00
2018-08-13T02:37:25.618Z,100.00
2018-08-13T02:39:53.882Z,100.00
2018-08-13T02:42:22.185Z,100.00
2018-08-13T02:44:50.388Z,100.00
2018-08-13T02:47:18.613Z,100.00
2018-08-13T02:49:46.806Z,100.00
2018-08-13T02:52:14.977Z,100.00
2018-08-13T02:54:43.493Z,100.00
2018-08-13T02:57:11.697Z,100.00
2018-08-13T02:59:39.996Z,100.00
2018-08-13T03:02:08.253Z,100.00
2018-08-13T03:04:36.533Z,100.00
2018-08-13T03:07:04.767Z,100.00
2018-08-13T03:09:32.949Z,100.00
2018-08-13T03:12:01.119Z,100.00
2018-08-13T03:14:29.342Z,100.00
2018-08-13T03:16:57.515Z,100.00
2018-08-13T03:19:25.970Z,100.00
2018-08-13T03:21:54.600Z,100.00
2018-08-13T03:24:22.865Z,100.00
2018-08-13T03:26:51.050Z,100.00
2018-08-13T03:29:19.308Z,100.00
2018-08-13T03:31:47.518Z,100.00
2018-08-13T03:34:15.706Z,100.00
2018-08-13T03:36:43.896Z,100.00
2018-08-13T03:39:13.486Z,100.00
2018-08-13T03:41:42.842Z,100.00
2018-08-13T03:44:11.885Z,100.00
2018-08-13T03:46:40.058Z,100.00
2018-08-13T03:49:09.569Z,100.00
2018-08-13T03:51:37.742Z,100.00
2018-08-13T03:54:05.950Z,100.00
2018-08-13T03:56:34.149Z,100.00
2018-08-13T03:59:02.445Z,100.00
2018-08-13T04:01:30.605Z,100.00
2018-08-13T04:03:58.885Z,100.00
2018-08-13T04:06:27.205Z,100.00
2018-08-13T04:08:55.388Z,100.00
2018-08-13T04:11:23.936Z,100.00
2018-08-13T04:13:52.193Z,100.00
2018-08-13T04:16:20.369Z,100.00
2018-08-13T04:18:48.587Z,100.00
2018-08-13T04:21:16.776Z,100.00
2018-08-13T04:23:44.971Z,100.00
2018-08-13T04:26:13.162Z,100.00
2018-08-13T04:28:41.432Z,100.00
2018-08-13T04:31:09.708Z,100.00
2018-08-13T04:33:37.991Z,100.00
2018-08-13T04:36:06.168Z,100.00
2018-08-13T04:38:34.377Z,100.00
2018-08-13T04:41:02.890Z,100.00
2018-08-13T04:43:31.098Z,100.00
2018-08-13T04:45:59.366Z,100.00
2018-08-13T04:48:27.546Z,100.00
2018-08-13T04:50:55.802Z,100.00
2018-08-13T04:53:23.994Z,100.00
2018-08-13T04:55:52.497Z,100.00
2018-08-13T04:58:20.688Z,100.00
2018-08-13T05:00:49.453Z,100.00
2018-08-13T05:03:17.649Z,100.00
2018-08-13T05:05:45.866Z,100.00
2018-08-13T05:08:14.064Z,100.00
2018-08-13T05:10:42.386Z,100.00
2018-08-13T05:13:10.961Z,100.00
2018-08-13T05:15:39.117Z,100.00
2018-08-13T05:18:07.331Z,100.00
2018-08-13T05:20:35.529Z,100.00
2018-08-13T05:23:04.121Z,100.00
2018-08-13T05:25:32.330Z,100.00
2018-08-13T05:28:00.513Z,100.00
2018-08-13T05:30:28.780Z,100.00
2018-08-13T05:32:57.000Z,100.00
2018-08-13T05:35:25.208Z,100.00
2018-08-13T05:37:53.465Z,100.00
2018-08-13T05:40:21.763Z,100.00
2018-08-13T05:42:50.119Z,100.00
2018-08-13T05:45:18.549Z,100.00
2018-08-13T05:47:47.144Z,100.00
2018-08-13T05:50:15.542Z,100.00
2018-08-13T05:52:43.742Z,100.00
2018-08-13T05:55:12.015Z,100.00
2018-08-13T05:57:40.314Z,100.00
2018-08-13T06:00:10.371Z,100.00
2018-08-13T06:02:40.172Z,100.00
2018-08-13T06:05:08.662Z,100.00
2018-08-13T06:07:36.842Z,99.31
2018-08-13T06:10:07.618Z,98.23
2018-08-13T06:12:35.877Z,98.35
2018-08-13T06:15:06.038Z,96.91
2018-08-13T06:17:34.266Z,97.96
2018-08-13T06:20:02.580Z,95.16
2018-08-13T06:22:30.762Z,92.92
2018-08-13T06:24:59.057Z,94.69
2018-08-13T06:27:27.441Z,94.99
2018-08-13T06:29:55.677Z,90.85
2018-08-13T06:32:25.313Z,91.98
2018-08-13T06:34:53.617Z,88.35
2018-08-13T06:37:22.022Z,88.14
2018-08-13T06:39:50.461Z,87.60
2018-08-13T06:42:19.007Z,88.06
2018-08-13T06:44:47.164Z,89.56
2018-08-13T06:47:15.412Z,87.24
2018-08-13T06:49:43.712Z,85.19
2018-08-13T06:52:11.944Z,80.50
2018-08-13T06:54:40.546Z,83.01
2018-08-13T06:57:09.587Z,84.70
2018-08-13T06:59:37.884Z,84.70
2018-08-13T07:02:06.200Z,84.34
2018-08-13T07:04:34.428Z,83.16
2018-08-13T07:07:03.236Z,83.86
2018-08-13T07:09:38.038Z,80.26
2018-08-13T07:12:06.470Z,80.33
2018-08-13T07:14:34.764Z,80.46
2018-08-13T07:17:03.073Z,79.54
2018-08-13T07:19:31.327Z,78.34
2018-08-13T07:21:59.722Z,81.68
2018-08-13T07:24:27.841Z,79.30
2018-08-13T07:26:56.313Z,78.62
2018-08-13T07:29:24.513Z,79.08
2018-08-13T07:31:52.705Z,78.31
2018-08-13T07:34:20.907Z,77.33
2018-08-13T07:36:49.163Z,73.34
2018-08-13T07:39:17.364Z,73.87
2018-08-13T07:41:45.689Z,74.32
2018-08-13T07:44:14.096Z,69.16
2018-08-13T07:46:42.412Z,70.46
2018-08-13T07:49:10.586Z,74.53
2018-08-13T07:51:39.044Z,74.16
2018-08-13T07:54:07.201Z,71.93
2018-08-13T07:56:35.392Z,72.08
2018-08-13T07:59:03.639Z,72.54
2018-08-13T08:01:31.955Z,67.61
2018-08-13T08:04:00.244Z,69.54
2018-08-13T08:06:28.804Z,66.28
2018-08-13T08:08:57.047Z,67.02
2018-08-13T08:11:25.278Z,71.33
2018-08-13T08:13:53.446Z,69.50
2018-08-13T08:16:21.670Z,69.93
2018-08-13T08:18:50.216Z,69.91
2018-08-13T08:21:18.777Z,66.74
2018-08-13T08:23:47.072Z,63.80
2018-08-13T08:26:15.254Z,66.87
2018-08-13T08:28:43.469Z,64.45
2018-08-13T08:31:11.753Z,65.47
2018-08-13T08:33:40.026Z,60.86
2018-08-13T08:36:08.293Z,62.35
2018-08-13T08:38:36.497Z,60.63
2018-08-13T08:41:04.717Z,61.77
2018-08-13T08:43:32.945Z,62.81
2018-08-13T08:46:01.273Z,62.03
2018-08-13T08:48:29.324Z,61.95
2018-08-13T08:50:57.765Z,61.76
2018-08-13T08:53:26.403Z,59.78
2018-08-13T08:55:54.523Z,57.22
2018-08-13T08:58:22.696Z,59.23
2018-08-13T09:00:51.041Z,57.40
2018-08-13T09:03:19.226Z,59.12
2018-08-13T09:05:47.469Z,57.54
2018-08-13T09:08:15.789Z,58.78
2018-08-13T09:10:43.913Z,57.83
2018-08-13T09:13:12.694Z,55.45
2018-08-13T09:15:41.004Z,56.21
2018-08-13T09:18:20.618Z,55.70
2018-08-13T09:21:00.083Z,55.05
2018-08-13T09:23:39.604Z,54.10
2018-08-13T09:26:19.062Z,54.29
2018-08-13T09:28:58.608Z,54.62
2018-08-13T09:31:38.216Z,53.79
2018-08-13T09:34:17.851Z,54.41
2018-08-13T09:36:46.359Z,50.96
2018-08-13T09:39:14.874Z,49.60
2018-08-13T09:41:43.266Z,48.98
2018-08-13T09:44:11.638Z,51.09
2018-08-13T09:46:39.930Z,51.02
2018-08-13T09:49:08.162Z,54.00
2018-08-13T09:51:36.429Z,51.94
2018-08-13T09:54:05.005Z,50.08
2018-08-13T09:56:33.205Z,50.10
2018-08-13T09:59:01.543Z,50.44
2018-08-13T10:01:29.749Z,50.11
2018-08-13T10:03:58.267Z,48.23
2018-08-13T10:06:26.475Z,48.18
2018-08-13T10:08:55.145Z,48.43
2018-08-13T10:11:23.394Z,47.46
2018-08-13T10:13:51.614Z,48.14
2018-08-13T10:16:19.856Z,46.41
2018-08-13T10:18:48.380Z,46.35
2018-08-13T10:21:16.896Z,45.35
2018-08-13T10:23:45.170Z,44.50
2018-08-13T10:26:13.494Z,43.45
2018-08-13T10:28:42.131Z,43.46
2018-08-13T10:31:10.530Z,42.99
2018-08-13T10:33:38.843Z,42.43
2018-08-13T10:36:07.058Z,41.88
2018-08-13T10:38:35.344Z,39.48
2018-08-13T10:41:03.673Z,40.42
2018-08-13T10:43:32.232Z,41.26
2018-08-13T10:46:00.477Z,39.76
2018-08-13T10:48:28.961Z,38.01
2018-08-13T10:50:57.766Z,37.64
2018-08-13T10:53:27.935Z,35.82
2018-08-13T10:55:56.195Z,35.47
2018-08-13T10:58:24.493Z,34.68
2018-08-13T11:00:52.687Z,34.72
2018-08-13T11:03:21.025Z,32.80
2018-08-13T11:05:49.347Z,31.71
2018-08-13T11:08:17.759Z,30.83
2018-08-13T11:10:46.065Z,33.14
2018-08-13T11:13:14.421Z,30.67
2018-08-13T11:15:42.700Z,24.26
2018-08-13T11:18:10.962Z,20.57
2018-08-13T11:20:39.533Z,27.18
2018-08-13T11:23:07.785Z,24.32
2018-08-13T11:25:36.034Z,24.02
2018-08-13T11:28:04.272Z,25.87
2018-08-13T11:30:32.510Z,30.49
2018-08-13T11:33:00.694Z,31.02
2018-08-13T11:35:28.896Z,31.02
2018-08-13T11:37:57.154Z,31.86
2018-08-13T11:40:25.347Z,30.70
2018-08-13T11:42:53.534Z,31.36
2018-08-13T11:45:22.035Z,31.67
2018-08-13T11:47:50.569Z,30.60
2018-08-13T11:50:20.068Z,31.74
2018-08-13T11:52:49.516Z,30.75
2018-08-13T11:55:18.830Z,28.46
2018-08-13T11:57:48.028Z,23.66
2018-08-13T12:00:16.285Z,23.24
2018-08-13T12:02:44.801Z,22.92
2018-08-13T12:05:14.800Z,15.21
2018-08-13T12:07:43.781Z,15.34
2018-08-13T12:10:13.037Z,18.88
2018-08-13T12:12:42.081Z,19.99
2018-08-13T12:15:11.373Z,13.89
2018-08-13T12:17:39.961Z,14.22
2018-08-13T12:20:12.069Z,19.80
2018-08-13T12:22:40.253Z,14.90
2018-08-13T12:25:08.997Z,12.99
2018-08-13T12:27:37.219Z,12.20
2018-08-13T12:30:07.705Z,10.42
2018-08-13T12:32:35.853Z,17.90
2018-08-13T12:35:04.841Z,11.94
2018-08-13T12:37:33.080Z,10.50
2018-08-13T12:40:01.354Z,14.10
2018-08-13T12:42:29.562Z,14.24
2018-08-13T12:44:57.782Z,12.22
2018-08-13T12:47:26.130Z,17.06
2018-08-13T12:49:54.322Z,19.50
2018-08-13T12:52:22.528Z,20.44
2018-08-13T12:54:50.806Z,22.34
2018-08-13T12:57:19.023Z,16.25
2018-08-13T12:59:47.247Z,13.71
2018-08-13T13:02:15.421Z,13.33
2018-08-13T13:04:43.798Z,12.97
2018-08-13T13:07:12.082Z,12.33
2018-08-13T13:09:40.358Z,12.52
2018-08-13T13:12:08.658Z,12.78
2018-08-13T13:14:36.908Z,11.17
2018-08-13T13:17:05.085Z,10.55
2018-08-13T13:19:33.266Z,13.14
2018-08-13T13:22:01.446Z,13.47
2018-08-13T13:24:29.640Z,18.82
2018-08-13T13:26:57.843Z,18.51
2018-08-13T13:29:26.105Z,15.15
2018-08-13T13:31:54.432Z,17.04
2018-08-13T13:34:22.633Z,14.57
2018-08-13T13:36:50.886Z,11.93
2018-08-13T13:39:19.054Z,10.94
2018-08-13T13:41:47.236Z,11.48
2018-08-13T13:44:15.620Z,14.18
2018-08-13T13:46:43.821Z,12.94
2018-08-13T13:49:12.082Z,10.66
2018-08-13T13:51:40.270Z,14.17
2018-08-13T13:54:08.565Z,18.58
2018-08-13T13:56:36.811Z,20.20
2018-08-13T13:59:05.402Z,17.74
2018-08-13T14:01:33.585Z,15.11
2018-08-13T14:04:01.825Z,16.25
2018-08-13T14:06:30.508Z,12.42
2018-08-13T14:08:58.717Z,13.09
2018-08-13T14:11:26.908Z,11.97
2018-08-13T14:13:55.167Z,17.09
2018-08-13T14:16:23.359Z,15.78
2018-08-13T14:18:51.593Z,16.91
2018-08-13T14:21:19.788Z,20.29
2018-08-13T14:23:47.979Z,21.30
2018-08-13T14:26:16.227Z,23.59
2018-08-13T14:28:44.490Z,23.86
2018-08-13T14:31:12.766Z,23.62
2018-08-13T14:33:40.949Z,24.62
2018-08-13T14:36:09.148Z,24.05
2018-08-13T14:38:37.423Z,24.89
2018-08-13T14:41:05.896Z,24.63
2018-08-13T14:43:34.162Z,25.39
2018-08-13T14:46:02.438Z,24.32
2018-08-13T14:48:30.690Z,23.95
2018-08-13T14:50:58.897Z,25.43
2018-08-13T14:53:27.138Z,26.34
2018-08-13T14:55:55.389Z,27.02
2018-08-13T14:58:23.658Z,27.93
2018-08-13T15:00:51.838Z,27.45
2018-08-13T15:03:20.050Z,28.63
2018-08-13T15:05:48.500Z,28.93
2018-08-13T15:08:16.696Z,29.90
2018-08-13T15:10:44.882Z,31.81
2018-08-13T15:13:13.126Z,31.19
2018-08-13T15:15:41.321Z,31.87
2018-08-13T15:18:09.821Z,31.43
2018-08-13T15:20:38.083Z,32.41
2018-08-13T15:23:06.363Z,31.88
2018-08-13T15:25:34.557Z,33.66
2018-08-13T15:28:03.225Z,33.55
2018-08-13T15:30:31.401Z,34.08
2018-08-13T15:32:59.608Z,34.38
2018-08-13T15:35:27.802Z,33.22
2018-08-13T15:37:56.019Z,34.03
2018-08-13T15:40:24.393Z,34.26
2018-08-13T15:42:52.572Z,35.36
2018-08-13T15:45:21.935Z,36.38
2018-08-13T15:47:50.354Z,36.22
2018-08-13T15:50:20.739Z,36.91
2018-08-13T15:52:49.302Z,36.24
2018-08-13T15:55:17.514Z,36.96
2018-08-13T15:57:45.983Z,36.49
2018-08-13T16:00:23.374Z,36.69
2018-08-13T16:02:52.240Z,36.88
2018-08-13T16:05:20.870Z,37.47
2018-08-13T16:07:49.414Z,37.38
2018-08-13T16:10:18.190Z,37.60
2018-08-13T16:12:46.557Z,38.31
2018-08-13T16:15:14.866Z,38.73
2018-08-13T16:17:43.225Z,38.80
2018-08-13T16:20:16.523Z,39.49
2018-08-13T16:22:45.605Z,40.23
2018-08-13T16:25:14.293Z,40.25
2018-08-13T16:27:43.205Z,39.93
2018-08-13T16:30:14.439Z,39.72
2018-08-13T16:32:42.653Z,40.07
2018-08-13T16:35:10.949Z,40.81
2018-08-13T16:37:39.255Z,41.09
2018-08-13T16:40:07.544Z,43.48
2018-08-13T16:42:35.813Z,43.65
2018-08-13T16:45:04.709Z,44.68
2018-08-13T16:47:32.967Z,46.00
2018-08-13T16:50:01.169Z,47.44
2018-08-13T16:52:29.424Z,51.74
2018-08-13T16:54:57.810Z,55.41
2018-08-13T16:57:26.017Z,57.89
2018-08-13T16:59:54.239Z,59.84
2018-08-13T17:02:22.565Z,60.28
2018-08-13T17:04:50.718Z,61.55
2018-08-13T17:07:18.900Z,64.16
2018-08-13T17:09:47.100Z,65.47
2018-08-13T17:12:15.358Z,68.82
2018-08-13T17:14:43.631Z,70.81
2018-08-13T17:17:11.837Z,74.73
2018-08-13T17:19:40.047Z,82.89
2018-08-13T17:22:08.649Z,94.48
2018-08-13T17:24:37.062Z,100.00
2018-08-13T17:27:05.286Z,100.00
2018-08-13T17:29:33.479Z,100.00
2018-08-13T17:32:01.741Z,100.00
2018-08-13T17:34:29.933Z,100.00
2018-08-13T17:36:58.153Z,100.00
2018-08-13T17:39:27.312Z,100.00
2018-08-13T17:41:55.531Z,100.00
2018-08-13T17:44:23.793Z,100.00
2018-08-13T17:46:52.001Z,100.00
2018-08-13T17:49:20.229Z,100.00
2018-08-13T17:51:48.561Z,100.00
2018-08-13T17:54:16.877Z,100.00
2018-08-13T17:56:45.123Z,100.00
2018-08-13T17:59:13.335Z,100.00
2018-08-13T18:01:41.721Z,100.00
2018-08-13T18:04:09.946Z,100.00
2018-08-13T18:06:38.174Z,100.00
2018-08-13T18:09:09.901Z,100.00
2018-08-13T18:11:38.268Z,100.00
2018-08-13T18:14:07.042Z,100.00
2018-08-13T18:16:35.503Z,100.00
2018-08-13T18:19:03.912Z,100.00
2018-08-13T18:21:32.116Z,100.00
2018-08-13T18:24:00.696Z,100.00
2018-08-13T18:26:29.088Z,100.00
2018-08-13T18:28:57.886Z,100.00
2018-08-13T18:31:26.114Z,100.00
2018-08-13T18:33:54.647Z,100.00
2018-08-13T18:36:23.029Z,100.00
2018-08-13T18:38:51.327Z,100.00
2018-08-13T18:41:19.713Z,100.00
2018-08-13T18:43:47.961Z,100.00
2018-08-13T18:46:16.310Z,100.00
2018-08-13T18:48:44.645Z,100.00
2018-08-13T18:51:14.097Z,100.00
2018-08-13T18:53:42.362Z,100.00
2018-08-13T18:56:10.558Z,100.00
2018-08-13T18:58:38.838Z,100.00
2018-08-13T19:01:07.162Z,100.00
2018-08-13T19:03:35.368Z,100.00
2018-08-13T19:06:03.679Z,100.00
2018-08-13T19:08:32.410Z,100.00
2018-08-13T19:11:00.742Z,100.00
2018-08-13T19:13:29.322Z,100.00
2018-08-13T19:15:57.855Z,100.00
2018-08-13T19:18:26.194Z,100.00
2018-08-13T19:20:54.308Z,100.00
2018-08-13T19:23:22.822Z,100.00
2018-08-13T19:25:51.408Z,100.00
2018-08-13T19:28:19.938Z,100.00
2018-08-13T19:30:48.326Z,100.00
2018-08-13T19:33:16.588Z,100.00
2018-08-13T19:35:44.779Z,100.00
2018-08-13T19:38:13.016Z,100.00
2018-08-13T19:40:41.305Z,100.00
2018-08-13T19:43:09.489Z,100.00
2018-08-13T19:45:37.903Z,100.00
2018-08-13T19:48:06.106Z,100.00
2018-08-13T19:50:34.336Z,100.00
2018-08-13T19:53:02.791Z,100.00
2018-08-13T19:55:31.066Z,100.00
2018-08-13T19:57:59.233Z,100.00
2018-08-13T20:00:29.007Z,100.00
2018-08-13T20:02:57.252Z,100.00
2018-08-13T20:05:26.849Z,100.00
2018-08-13T20:07:57.304Z,100.00
2018-08-13T20:10:25.519Z,100.00
2018-08-13T20:12:53.928Z,100.00
2018-08-13T20:15:22.188Z,100.00
2018-08-13T20:17:50.521Z,100.00
2018-08-13T20:20:19.900Z,100.00
2018-08-13T20:22:48.616Z,100.00
2018-08-13T20:25:17.766Z,100.00
2018-08-13T20:27:46.515Z,100.00
2018-08-13T20:30:16.720Z,100.00
2018-08-13T20:32:46.265Z,100.00
2018-08-13T20:35:14.502Z,100.00
2018-08-13T20:37:42.746Z,100.00
2018-08-13T20:40:12.928Z,100.00
2018-08-13T20:42:41.504Z,100.00
2018-08-13T20:45:12.346Z,100.00
2018-08-13T20:47:40.623Z,100.00
2018-08-13T20:50:11.438Z,100.00
2018-08-13T20:52:39.829Z,100.00
2018-08-13T20:55:11.161Z,100.00
2018-08-13T20:57:39.365Z,100.00
2018-08-13T21:00:09.304Z,100.00
2018-08-13T21:02:37.921Z,100.00
2018-08-13T21:05:06.117Z,100.00
2018-08-13T21:07:34.429Z,100.00
2018-08-13T21:10:02.996Z,100.00
2018-08-13T21:12:31.549Z,100.00
2018-08-13T21:14:59.796Z,100.00
2018-08-13T21:17:28.009Z,100.00
2018-08-13T21:19:56.248Z,100.00
2018-08-13T21:22:24.474Z,100.00
2018-08-13T21:24:52.674Z,100.00
2018-08-13T21:27:20.846Z,100.00
2018-08-13T21:29:49.122Z,100.00
2018-08-13T21:32:17.358Z,100.00
2018-08-13T21:34:45.547Z,100.00
2018-08-13T21:37:13.786Z,100.00
2018-08-13T21:39:41.982Z,100.00
2018-08-13T21:42:10.234Z,100.00
2018-08-13T21:44:38.410Z,100.00
2018-08-13T21:47:06.878Z,100.00
2018-08-13T21:49:35.058Z,100.00
2018-08-13T21:52:03.326Z,100.00
2018-08-13T21:54:31.546Z,100.00
2018-08-13T21:56:59.771Z,100.00
2018-08-13T21:59:27.965Z,100.00
2018-08-13T22:01:56.554Z,100.00
2018-08-13T22:04:24.713Z,100.00
2018-08-13T22:06:53.215Z,100.00
2018-08-13T22:09:22.001Z,100.00
2018-08-13T22:11:50.177Z,100.00
2018-08-13T22:14:18.360Z,100.00
2018-08-13T22:16:46.579Z,100.00
2018-08-13T22:19:14.755Z,100.00
2018-08-13T22:21:43.215Z,100.00
2018-08-13T22:24:22.722Z,100.00
2018-08-13T22:26:51.262Z,100.00
2018-08-13T22:29:19.438Z,100.00
2018-08-13T22:31:47.670Z,100.00
2018-08-13T22:34:15.874Z,100.00
2018-08-13T22:36:44.118Z,100.00
2018-08-13T22:39:12.428Z,100.00
2018-08-13T22:41:40.638Z,100.00
2018-08-13T22:44:08.878Z,100.00
2018-08-13T22:46:37.360Z,100.00
2018-08-13T22:49:05.674Z,100.00
2018-08-13T22:51:34.141Z,100.00
2018-08-13T22:54:02.381Z,100.00
2018-08-13T22:56:30.573Z,100.00
2018-08-13T22:58:59.075Z,100.00
2018-08-13T23:01:27.295Z,100.00
2018-08-13T23:03:55.491Z,100.00
2018-08-13T23:06:23.661Z,100.00
2018-08-13T23:08:51.875Z,100.00
2018-08-13T23:11:20.073Z,100.00
2018-08-13T23:13:48.269Z,100.00
2018-08-13T23:16:16.543Z,100.00
2018-08-13T23:18:45.384Z,100.00
2018-08-13T23:21:13.572Z,100.00
2018-08-13T23:23:41.844Z,100.00
2018-08-13T23:26:10.318Z,100.00
2018-08-13T23:28:38.530Z,100.00
2018-08-13T23:31:06.722Z,100.00
2018-08-13T23:33:34.952Z,100.00
2018-08-13T23:36:03.280Z,100.00
2018-08-13T23:38:31.518Z,100.00
2018-08-13T23:40:59.743Z,100.00
2018-08-13T23:43:27.998Z,100.00
2018-08-13T23:45:56.478Z,100.00
2018-08-13T23:48:24.681Z,100.00
2018-08-13T23:50:52.883Z,100.00
2018-08-13T23:53:21.116Z,100.00
2018-08-13T23:55:49.283Z,100.00
2018-08-13T23:58:17.555Z,100.00
